sensor_id;sensor_type;location;lat;lon;timestamp;pressure;altitude;pressure_sealevel;temperature;humidity
21449;BME280;10885;52.830;13.788;2023-05-31T00:01:48;102137.19;;;12.87;55.19
21449;BME280;10885;52.830;13.788;2023-05-31T00:07:10;102135.06;;;12.70;55.74
21449;BME280;10885;52.830;13.788;2023-05-31T00:12:31;102138.75;;;12.04;58.35
21449;BME280;10885;52.830;13.788;2023-05-31T00:17:51;102129.66;;;12.31;57.51
21449;BME280;10885;52.830;13.788;2023-05-31T00:23:12;102128.53;;;12.28;57.66
21449;BME280;10885;52.830;13.788;2023-05-31T00:28:33;102147.25;;;12.15;57.92
21449;BME280;10885;52.830;13.788;2023-05-31T00:33:54;102147.59;;;12.08;58.29
21449;BME280;10885;52.830;13.788;2023-05-31T00:39:17;102148.81;;;12.13;58.01
21449;BME280;10885;52.830;13.788;2023-05-31T00:44:39;102144.56;;;12.02;58.70
21449;BME280;10885;52.830;13.788;2023-05-31T00:50:00;102147.22;;;12.03;58.75
21449;BME280;10885;52.830;13.788;2023-05-31T00:55:22;102136.81;;;11.80;59.44
21449;BME280;10885;52.830;13.788;2023-05-31T01:00:43;102134.94;;;11.01;61.09
21449;BME280;10885;52.830;13.788;2023-05-31T01:06:04;102144.97;;;11.52;60.07
21449;BME280;10885;52.830;13.788;2023-05-31T01:16:54;102134.41;;;10.42;63.80
21449;BME280;10885;52.830;13.788;2023-05-31T01:22:26;102140.44;;;10.95;62.50
21449;BME280;10885;52.830;13.788;2023-05-31T01:27:54;102136.16;;;11.06;61.71
21449;BME280;10885;52.830;13.788;2023-05-31T01:33:18;102135.84;;;10.91;62.11
21449;BME280;10885;52.830;13.788;2023-05-31T01:38:40;102151.06;;;11.00;61.63
21449;BME280;10885;52.830;13.788;2023-05-31T01:44:02;102140.09;;;10.80;61.93
21449;BME280;10885;52.830;13.788;2023-05-31T01:49:27;102139.63;;;10.64;62.49
21449;BME280;10885;52.830;13.788;2023-05-31T01:54:48;102141.03;;;10.70;62.14
21449;BME280;10885;52.830;13.788;2023-05-31T02:00:11;102152.72;;;10.57;62.63
21449;BME280;10885;52.830;13.788;2023-05-31T02:05:33;102147.47;;;10.55;62.39
21449;BME280;10885;52.830;13.788;2023-05-31T02:10:54;102157.41;;;9.80;63.58
21449;BME280;10885;52.830;13.788;2023-05-31T02:16:15;102153.97;;;9.90;64.49
21449;BME280;10885;52.830;13.788;2023-05-31T02:21:40;102149.19;;;9.74;64.50
21449;BME280;10885;52.830;13.788;2023-05-31T02:27:02;102145.88;;;9.75;64.07
21449;BME280;10885;52.830;13.788;2023-05-31T02:32:23;102147.97;;;9.50;64.29
21449;BME280;10885;52.830;13.788;2023-05-31T02:37:45;102134.38;;;9.41;65.92
21449;BME280;10885;52.830;13.788;2023-05-31T02:43:07;102143.31;;;9.25;66.17
21449;BME280;10885;52.830;13.788;2023-05-31T02:48:28;102147.38;;;8.75;66.28
21449;BME280;10885;52.830;13.788;2023-05-31T02:53:51;102136.13;;;9.21;65.22
21449;BME280;10885;52.830;13.788;2023-05-31T02:59:17;102137.81;;;9.02;66.39
21449;BME280;10885;52.830;13.788;2023-05-31T03:04:46;102125.75;;;9.20;65.84
21449;BME280;10885;52.830;13.788;2023-05-31T03:10:09;102135.84;;;9.18;65.66
21449;BME280;10885;52.830;13.788;2023-05-31T03:15:31;102143.28;;;8.96;65.68
21449;BME280;10885;52.830;13.788;2023-05-31T03:20:53;102130.09;;;8.72;66.25
21449;BME280;10885;52.830;13.788;2023-05-31T03:26:14;102138.81;;;8.93;66.08
21449;BME280;10885;52.830;13.788;2023-05-31T03:31:35;102139.09;;;8.59;66.57
21449;BME280;10885;52.830;13.788;2023-05-31T03:36:57;102142.31;;;8.85;66.08
21449;BME280;10885;52.830;13.788;2023-05-31T03:42:47;102133.91;;;8.67;65.80
21449;BME280;10885;52.830;13.788;2023-05-31T03:48:08;102136.59;;;8.88;66.47
21449;BME280;10885;52.830;13.788;2023-05-31T03:53:30;102133.59;;;8.83;66.02
21449;BME280;10885;52.830;13.788;2023-05-31T03:58:53;102135.03;;;8.42;68.44
21449;BME280;10885;52.830;13.788;2023-05-31T04:04:14;102134.47;;;8.73;67.96
21449;BME280;10885;52.830;13.788;2023-05-31T04:09:36;102136.75;;;8.89;68.03
21449;BME280;10885;52.830;13.788;2023-05-31T04:14:57;102144.56;;;9.01;67.73
21449;BME280;10885;52.830;13.788;2023-05-31T04:20:18;102145.03;;;9.16;68.45
21449;BME280;10885;52.830;13.788;2023-05-31T04:25:42;102136.94;;;9.41;69.04
21449;BME280;10885;52.830;13.788;2023-05-31T04:31:06;102139.66;;;9.52;68.22
21449;BME280;10885;52.830;13.788;2023-05-31T04:36:28;102136.78;;;9.79;69.12
21449;BME280;10885;52.830;13.788;2023-05-31T04:41:49;102134.78;;;10.05;68.00
21449;BME280;10885;52.830;13.788;2023-05-31T04:47:11;102135.56;;;10.25;67.12
21449;BME280;10885;52.830;13.788;2023-05-31T04:52:33;102135.94;;;10.50;66.48
21449;BME280;10885;52.830;13.788;2023-05-31T04:57:55;102134.59;;;10.75;65.04
21449;BME280;10885;52.830;13.788;2023-05-31T05:03:16;102129.53;;;10.98;64.45
21449;BME280;10885;52.830;13.788;2023-05-31T05:08:40;102131.66;;;11.13;63.87
21449;BME280;10885;52.830;13.788;2023-05-31T05:14:01;102127.47;;;11.36;63.50
21449;BME280;10885;52.830;13.788;2023-05-31T05:19:24;102130.25;;;11.61;63.74
21449;BME280;10885;52.830;13.788;2023-05-31T05:24:46;102132.22;;;11.98;62.73
21449;BME280;10885;52.830;13.788;2023-05-31T05:30:09;102129.94;;;12.12;61.89
21449;BME280;10885;52.830;13.788;2023-05-31T05:35:30;102123.38;;;12.16;61.57
21449;BME280;10885;52.830;13.788;2023-05-31T05:40:51;102125.75;;;12.48;60.87
21449;BME280;10885;52.830;13.788;2023-05-31T05:46:14;102139.34;;;12.81;59.97
21449;BME280;10885;52.830;13.788;2023-05-31T05:51:35;102130.34;;;13.11;58.76
21449;BME280;10885;52.830;13.788;2023-05-31T05:57:01;102134.56;;;13.35;58.66
21449;BME280;10885;52.830;13.788;2023-05-31T06:02:25;102126.06;;;13.72;57.07
21449;BME280;10885;52.830;13.788;2023-05-31T06:07:48;102124.31;;;13.97;55.97
21449;BME280;10885;52.830;13.788;2023-05-31T06:13:10;102121.75;;;14.10;56.15
21449;BME280;10885;52.830;13.788;2023-05-31T06:18:32;102118.72;;;14.29;55.18
21449;BME280;10885;52.830;13.788;2023-05-31T06:23:54;102113.13;;;14.61;54.03
21449;BME280;10885;52.830;13.788;2023-05-31T06:29:15;102108.88;;;14.88;53.53
21449;BME280;10885;52.830;13.788;2023-05-31T06:34:43;102101.22;;;15.31;52.76
21449;BME280;10885;52.830;13.788;2023-05-31T06:40:06;102093.56;;;15.75;51.11
21449;BME280;10885;52.830;13.788;2023-05-31T06:45:30;102095.13;;;16.01;50.60
21449;BME280;10885;52.830;13.788;2023-05-31T06:51:10;102086.91;;;16.53;49.47
21449;BME280;10885;52.830;13.788;2023-05-31T06:56:54;102086.91;;;16.82;48.38
21449;BME280;10885;52.830;13.788;2023-05-31T07:02:16;102078.47;;;17.18;47.80
21449;BME280;10885;52.830;13.788;2023-05-31T07:07:37;102082.38;;;17.42;46.71
21449;BME280;10885;52.830;13.788;2023-05-31T07:12:59;102080.28;;;17.84;45.39
21449;BME280;10885;52.830;13.788;2023-05-31T07:18:20;102086.28;;;18.18;44.03
21449;BME280;10885;52.830;13.788;2023-05-31T07:23:42;102083.72;;;18.36;43.95
21449;BME280;10885;52.830;13.788;2023-05-31T07:29:04;102088.59;;;18.82;43.63
21449;BME280;10885;52.830;13.788;2023-05-31T07:34:25;102082.47;;;19.37;42.79
21449;BME280;10885;52.830;13.788;2023-05-31T07:39:46;102081.13;;;20.05;40.31
21449;BME280;10885;52.830;13.788;2023-05-31T07:45:08;102072.69;;;20.53;38.11
21449;BME280;10885;52.830;13.788;2023-05-31T07:50:29;102072.28;;;20.85;38.13
21449;BME280;10885;52.830;13.788;2023-05-31T07:55:50;102051.28;;;21.28;36.46
21449;BME280;10885;52.830;13.788;2023-05-31T08:01:12;102053.53;;;21.91;34.52
21449;BME280;10885;52.830;13.788;2023-05-31T08:06:33;102057.38;;;21.76;34.53
21449;BME280;10885;52.830;13.788;2023-05-31T08:11:54;102050.50;;;21.78;33.73
21449;BME280;10885;52.830;13.788;2023-05-31T08:17:16;102050.69;;;22.36;33.54
21449;BME280;10885;52.830;13.788;2023-05-31T08:22:37;102051.56;;;23.21;32.04
21449;BME280;10885;52.830;13.788;2023-05-31T08:27:58;102041.28;;;23.91;31.26
21449;BME280;10885;52.830;13.788;2023-05-31T08:33:20;102040.94;;;24.12;31.36
21449;BME280;10885;52.830;13.788;2023-05-31T08:38:41;102045.13;;;24.78;29.03
21449;BME280;10885;52.830;13.788;2023-05-31T08:44:02;102039.13;;;25.23;27.36
21449;BME280;10885;52.830;13.788;2023-05-31T08:49:25;102023.88;;;25.07;28.14
21449;BME280;10885;52.830;13.788;2023-05-31T08:54:48;102021.69;;;25.25;28.50
21449;BME280;10885;52.830;13.788;2023-05-31T09:00:11;102013.84;;;25.28;28.54
21449;BME280;10885;52.830;13.788;2023-05-31T09:05:32;102009.13;;;25.12;27.61
21449;BME280;10885;52.830;13.788;2023-05-31T09:10:53;102006.47;;;24.68;26.96
21449;BME280;10885;52.830;13.788;2023-05-31T09:16:14;102003.16;;;25.20;28.11
21449;BME280;10885;52.830;13.788;2023-05-31T09:21:44;101999.25;;;25.91;27.20
21449;BME280;10885;52.830;13.788;2023-05-31T09:27:05;101992.88;;;26.97;24.44
21449;BME280;10885;52.830;13.788;2023-05-31T09:32:27;101991.00;;;26.84;25.01
21449;BME280;10885;52.830;13.788;2023-05-31T09:37:49;101983.34;;;27.07;22.81
21449;BME280;10885;52.830;13.788;2023-05-31T09:43:15;101992.25;;;26.50;24.54
21449;BME280;10885;52.830;13.788;2023-05-31T09:48:36;101981.34;;;26.85;22.85
21449;BME280;10885;52.830;13.788;2023-05-31T09:53:59;101986.25;;;27.26;21.77
21449;BME280;10885;52.830;13.788;2023-05-31T09:59:22;101978.38;;;27.30;22.83
21449;BME280;10885;52.830;13.788;2023-05-31T10:04:43;101977.75;;;26.76;21.41
21449;BME280;10885;52.830;13.788;2023-05-31T10:10:06;101971.13;;;27.11;20.07
21449;BME280;10885;52.830;13.788;2023-05-31T10:15:31;101966.47;;;25.69;23.77
21449;BME280;10885;52.830;13.788;2023-05-31T10:20:56;101960.75;;;25.42;22.25
21449;BME280;10885;52.830;13.788;2023-05-31T10:26:20;101960.91;;;25.52;23.30
21449;BME280;10885;52.830;13.788;2023-05-31T10:31:54;101960.81;;;25.96;22.20
21449;BME280;10885;52.830;13.788;2023-05-31T10:37:17;101959.69;;;25.32;24.54
21449;BME280;10885;52.830;13.788;2023-05-31T10:42:55;101945.09;;;25.02;23.80
21449;BME280;10885;52.830;13.788;2023-05-31T10:53:48;101940.13;;;25.63;25.34
21449;BME280;10885;52.830;13.788;2023-05-31T10:59:16;101935.50;;;26.63;22.44
21449;BME280;10885;52.830;13.788;2023-05-31T11:04:38;101926.78;;;27.51;20.97
21449;BME280;10885;52.830;13.788;2023-05-31T11:09:59;101913.94;;;27.88;20.43
21449;BME280;10885;52.830;13.788;2023-05-31T11:15:21;101916.63;;;27.95;19.65
21449;BME280;10885;52.830;13.788;2023-05-31T11:20:42;101905.06;;;27.78;19.62
21449;BME280;10885;52.830;13.788;2023-05-31T11:26:16;101901.50;;;27.73;20.19
21449;BME280;10885;52.830;13.788;2023-05-31T11:37:18;101876.25;;;28.03;19.73
21449;BME280;10885;52.830;13.788;2023-05-31T11:42:40;101878.03;;;28.05;19.16
21449;BME280;10885;52.830;13.788;2023-05-31T11:48:20;101873.69;;;28.16;20.31
21449;BME280;10885;52.830;13.788;2023-05-31T11:53:44;101869.16;;;27.91;21.44
21449;BME280;10885;52.830;13.788;2023-05-31T11:59:06;101870.72;;;27.64;21.58
21449;BME280;10885;52.830;13.788;2023-05-31T12:04:28;101852.16;;;27.46;19.68
21449;BME280;10885;52.830;13.788;2023-05-31T12:09:49;101853.22;;;27.74;17.54
21449;BME280;10885;52.830;13.788;2023-05-31T12:15:10;101861.09;;;27.71;17.79
21449;BME280;10885;52.830;13.788;2023-05-31T12:20:33;101854.13;;;27.81;17.56
21449;BME280;10885;52.830;13.788;2023-05-31T12:25:57;101847.31;;;28.10;18.44
21449;BME280;10885;52.830;13.788;2023-05-31T12:31:24;101841.84;;;27.78;19.05
21449;BME280;10885;52.830;13.788;2023-05-31T12:36:47;101832.28;;;27.91;19.76
21449;BME280;10885;52.830;13.788;2023-05-31T12:42:08;101828.94;;;28.27;17.59
21449;BME280;10885;52.830;13.788;2023-05-31T12:47:30;101813.16;;;28.49;15.32
21449;BME280;10885;52.830;13.788;2023-05-31T12:52:57;101809.69;;;28.53;16.03
21449;BME280;10885;52.830;13.788;2023-05-31T12:58:18;101805.97;;;27.99;17.52
21449;BME280;10885;52.830;13.788;2023-05-31T13:03:40;101794.53;;;27.96;14.51
21449;BME280;10885;52.830;13.788;2023-05-31T13:09:02;101786.41;;;27.58;19.22
21449;BME280;10885;52.830;13.788;2023-05-31T13:14:25;101789.34;;;28.07;17.23
21449;BME280;10885;52.830;13.788;2023-05-31T13:19:46;101785.03;;;28.46;17.19
21449;BME280;10885;52.830;13.788;2023-05-31T13:25:13;101778.75;;;28.01;18.94
21449;BME280;10885;52.830;13.788;2023-05-31T13:30:34;101771.00;;;26.94;19.47
21449;BME280;10885;52.830;13.788;2023-05-31T13:35:55;101751.03;;;27.22;17.70
21449;BME280;10885;52.830;13.788;2023-05-31T13:41:18;101739.94;;;27.71;18.35
21449;BME280;10885;52.830;13.788;2023-05-31T13:46:40;101731.97;;;27.58;20.08
21449;BME280;10885;52.830;13.788;2023-05-31T13:52:01;101726.75;;;27.66;19.64
21449;BME280;10885;52.830;13.788;2023-05-31T13:57:25;101719.94;;;28.10;16.39
21449;BME280;10885;52.830;13.788;2023-05-31T14:02:46;101711.25;;;28.52;15.23
21449;BME280;10885;52.830;13.788;2023-05-31T14:08:08;101712.06;;;28.25;17.07
21449;BME280;10885;52.830;13.788;2023-05-31T14:13:29;101697.81;;;27.74;18.21
21449;BME280;10885;52.830;13.788;2023-05-31T14:18:50;101688.13;;;27.62;17.17
21449;BME280;10885;52.830;13.788;2023-05-31T14:24:12;101684.53;;;27.55;19.47
21449;BME280;10885;52.830;13.788;2023-05-31T14:29:34;101675.47;;;27.06;19.65
21449;BME280;10885;52.830;13.788;2023-05-31T14:34:56;101674.84;;;27.45;17.82
21449;BME280;10885;52.830;13.788;2023-05-31T14:40:17;101664.44;;;27.70;17.51
21449;BME280;10885;52.830;13.788;2023-05-31T14:45:39;101664.47;;;27.76;18.36
21449;BME280;10885;52.830;13.788;2023-05-31T14:51:00;101664.38;;;27.56;18.67
21449;BME280;10885;52.830;13.788;2023-05-31T14:56:21;101651.16;;;27.42;18.29
21449;BME280;10885;52.830;13.788;2023-05-31T15:01:43;101640.38;;;27.01;19.53
21449;BME280;10885;52.830;13.788;2023-05-31T15:07:05;101637.66;;;26.87;21.26
21449;BME280;10885;52.830;13.788;2023-05-31T15:12:26;101630.38;;;26.55;20.83
21449;BME280;10885;52.830;13.788;2023-05-31T15:17:47;101630.28;;;26.44;19.61
21449;BME280;10885;52.830;13.788;2023-05-31T15:23:09;101632.00;;;26.39;19.60
21449;BME280;10885;52.830;13.788;2023-05-31T15:28:30;101610.19;;;26.51;18.98
21449;BME280;10885;52.830;13.788;2023-05-31T15:33:51;101616.44;;;26.62;19.51
21449;BME280;10885;52.830;13.788;2023-05-31T15:39:13;101617.44;;;26.81;17.02
21449;BME280;10885;52.830;13.788;2023-05-31T15:44:35;101610.53;;;26.98;16.92
21449;BME280;10885;52.830;13.788;2023-05-31T15:49:59;101608.72;;;26.90;19.58
21449;BME280;10885;52.830;13.788;2023-05-31T15:55:21;101593.09;;;27.17;16.90
21449;BME280;10885;52.830;13.788;2023-05-31T16:00:42;101593.06;;;27.10;18.16
21449;BME280;10885;52.830;13.788;2023-05-31T16:06:04;101584.16;;;26.86;17.43
21449;BME280;10885;52.830;13.788;2023-05-31T16:11:26;101580.63;;;26.83;19.87
21449;BME280;10885;52.830;13.788;2023-05-31T16:16:49;101577.03;;;26.70;19.44
21449;BME280;10885;52.830;13.788;2023-05-31T16:22:11;101577.22;;;27.01;15.13
21449;BME280;10885;52.830;13.788;2023-05-31T16:27:32;101574.59;;;27.04;17.17
21449;BME280;10885;52.830;13.788;2023-05-31T16:32:53;101568.47;;;27.00;16.23
21449;BME280;10885;52.830;13.788;2023-05-31T16:38:15;101564.03;;;26.93;17.62
21449;BME280;10885;52.830;13.788;2023-05-31T16:43:36;101557.66;;;26.57;19.07
21449;BME280;10885;52.830;13.788;2023-05-31T16:48:57;101553.94;;;26.32;19.53
21449;BME280;10885;52.830;13.788;2023-05-31T16:54:19;101545.06;;;26.14;19.31
21449;BME280;10885;52.830;13.788;2023-05-31T16:59:39;101545.94;;;26.13;19.54
21449;BME280;10885;52.830;13.788;2023-05-31T17:05:00;101531.75;;;25.96;20.83
21449;BME280;10885;52.830;13.788;2023-05-31T17:10:22;101535.09;;;25.79;19.73
21449;BME280;10885;52.830;13.788;2023-05-31T17:15:44;101523.72;;;25.80;19.12
21449;BME280;10885;52.830;13.788;2023-05-31T17:21:06;101516.72;;;25.81;20.14
21449;BME280;10885;52.830;13.788;2023-05-31T17:26:27;101520.78;;;25.50;21.20
21449;BME280;10885;52.830;13.788;2023-05-31T17:31:48;101510.88;;;25.24;21.74
21449;BME280;10885;52.830;13.788;2023-05-31T17:37:11;101500.03;;;24.98;22.50
21449;BME280;10885;52.830;13.788;2023-05-31T17:42:32;101504.22;;;24.84;22.22
21449;BME280;10885;52.830;13.788;2023-05-31T17:47:54;101491.81;;;24.72;23.10
21449;BME280;10885;52.830;13.788;2023-05-31T17:53:16;101487.34;;;24.63;22.84
21449;BME280;10885;52.830;13.788;2023-05-31T17:58:37;101481.97;;;24.54;23.57
21449;BME280;10885;52.830;13.788;2023-05-31T18:03:58;101479.97;;;24.39;24.59
21449;BME280;10885;52.830;13.788;2023-05-31T18:09:20;101471.09;;;24.29;24.49
21449;BME280;10885;52.830;13.788;2023-05-31T18:14:41;101474.44;;;24.20;24.42
21449;BME280;10885;52.830;13.788;2023-05-31T18:20:02;101469.91;;;24.09;25.04
21449;BME280;10885;52.830;13.788;2023-05-31T18:25:24;101456.56;;;23.92;25.67
21449;BME280;10885;52.830;13.788;2023-05-31T18:30:49;101448.34;;;23.72;26.74
21449;BME280;10885;52.830;13.788;2023-05-31T18:36:11;101449.69;;;23.50;27.00
21449;BME280;10885;52.830;13.788;2023-05-31T18:41:32;101447.59;;;23.30;28.69
21449;BME280;10885;52.830;13.788;2023-05-31T18:46:53;101452.22;;;23.01;29.14
21449;BME280;10885;52.830;13.788;2023-05-31T18:52:15;101450.22;;;22.48;29.78
21449;BME280;10885;52.830;13.788;2023-05-31T18:57:38;101444.34;;;22.20;30.79
21449;BME280;10885;52.830;13.788;2023-05-31T19:02:59;101442.47;;;22.15;31.08
21449;BME280;10885;52.830;13.788;2023-05-31T19:08:20;101443.22;;;21.74;32.07
21449;BME280;10885;52.830;13.788;2023-05-31T19:13:41;101447.34;;;21.66;32.45
21449;BME280;10885;52.830;13.788;2023-05-31T19:19:03;101451.47;;;21.26;33.44
21449;BME280;10885;52.830;13.788;2023-05-31T19:24:24;101447.88;;;20.60;33.87
21449;BME280;10885;52.830;13.788;2023-05-31T19:29:45;101458.69;;;20.45;34.27
21449;BME280;10885;52.830;13.788;2023-05-31T19:35:07;101459.72;;;20.23;34.59
21449;BME280;10885;52.830;13.788;2023-05-31T19:40:29;101453.16;;;20.08;35.40
21449;BME280;10885;52.830;13.788;2023-05-31T19:45:52;101453.31;;;19.86;36.22
21449;BME280;10885;52.830;13.788;2023-05-31T19:51:13;101452.38;;;19.35;36.59
21449;BME280;10885;52.830;13.788;2023-05-31T19:56:35;101444.31;;;19.27;37.79
21449;BME280;10885;52.830;13.788;2023-05-31T20:01:55;101452.78;;;19.21;37.76
21449;BME280;10885;52.830;13.788;2023-05-31T20:07:17;101442.66;;;19.05;38.10
21449;BME280;10885;52.830;13.788;2023-05-31T20:12:38;101442.72;;;18.61;38.93
21449;BME280;10885;52.830;13.788;2023-05-31T20:17:59;101445.41;;;18.40;39.41
21449;BME280;10885;52.830;13.788;2023-05-31T20:23:20;101434.75;;;18.12;40.43
21449;BME280;10885;52.830;13.788;2023-05-31T20:28:41;101428.03;;;17.96;40.79
21449;BME280;10885;52.830;13.788;2023-05-31T20:34:03;101424.75;;;18.00;41.27
21449;BME280;10885;52.830;13.788;2023-05-31T20:39:26;101421.34;;;18.01;41.05
21449;BME280;10885;52.830;13.788;2023-05-31T20:44:50;101423.56;;;17.92;41.18
